sensor_id;sensor_type;location;lat;lon;timestamp;pressure;altitude;pressure_sealevel;temperature;humidity
58662;BME280;44432;49.786;22.760;2022-10-16T00:01:21;99781.83;;;7.95;83.01
58662;BME280;44432;49.786;22.760;2022-10-16T00:03:52;99780.79;;;7.94;82.78
58662;BME280;44432;49.786;22.760;2022-10-16T00:06:23;99774.77;;;7.91;82.76
58662;BME280;44432;49.786;22.760;2022-10-16T00:08:54;99774.36;;;7.90;82.76
58662;BME280;44432;49.786;22.760;2022-10-16T00:11:26;99776.41;;;7.86;82.59
58662;BME280;44432;49.786;22.760;2022-10-16T00:13:59;99779.11;;;7.82;82.86
58662;BME280;44432;49.786;22.760;2022-10-16T00:16:30;99779.52;;;7.76;82.89
58662;BME280;44432;49.786;22.760;2022-10-16T00:19:01;99783.63;;;7.72;82.82
58662;BME280;44432;49.786;22.760;2022-10-16T00:21:33;99783.19;;;7.70;83.09
58662;BME280;44432;49.786;22.760;2022-10-16T00:24:06;99783.21;;;7.69;83.00
58662;BME280;44432;49.786;22.760;2022-10-16T00:26:38;99781.74;;;7.68;82.88
58662;BME280;44432;49.786;22.760;2022-10-16T00:29:10;99781.77;;;7.68;83.09
58662;BME280;44432;49.786;22.760;2022-10-16T00:31:40;99780.77;;;7.67;83.54
58662;BME280;44432;49.786;22.760;2022-10-16T00:34:11;99783.84;;;7.68;83.26
58662;BME280;44432;49.786;22.760;2022-10-16T00:36:41;99784.30;;;7.69;83.64
58662;BME280;44432;49.786;22.760;2022-10-16T00:39:12;99786.89;;;7.69;83.39
58662;BME280;44432;49.786;22.760;2022-10-16T00:41:42;99783.95;;;7.70;83.89
58662;BME280;44432;49.786;22.760;2022-10-16T00:44:44;99780.81;;;7.71;83.55
58662;BME280;44432;49.786;22.760;2022-10-16T00:47:21;99779.89;;;7.72;83.51
58662;BME280;44432;49.786;22.760;2022-10-16T00:49:55;99780.35;;;7.72;83.82
58662;BME280;44432;49.786;22.760;2022-10-16T00:52:27;99779.05;;;7.74;84.07
58662;BME280;44432;49.786;22.760;2022-10-16T00:54:59;99782.70;;;7.75;83.76
58662;BME280;44432;49.786;22.760;2022-10-16T00:57:30;99786.47;;;7.74;83.83
58662;BME280;44432;49.786;22.760;2022-10-16T01:00:02;99787.36;;;7.74;83.84
58662;BME280;44432;49.786;22.760;2022-10-16T01:02:33;99791.17;;;7.74;83.89
58662;BME280;44432;49.786;22.760;2022-10-16T01:05:04;99789.92;;;7.74;84.04
58662;BME280;44432;49.786;22.760;2022-10-16T01:07:43;99793.15;;;7.76;84.16
58662;BME280;44432;49.786;22.760;2022-10-16T01:10:25;99795.19;;;7.78;83.98
58662;BME280;44432;49.786;22.760;2022-10-16T01:13:01;99798.64;;;7.79;83.80
58662;BME280;44432;49.786;22.760;2022-10-16T01:15:40;99800.61;;;7.78;83.66
58662;BME280;44432;49.786;22.760;2022-10-16T01:18:16;99804.87;;;7.80;83.76
58662;BME280;44432;49.786;22.760;2022-10-16T01:20:53;99810.84;;;7.81;84.10
58662;BME280;44432;49.786;22.760;2022-10-16T01:23:31;99812.38;;;7.81;83.69
58662;BME280;44432;49.786;22.760;2022-10-16T01:26:19;99815.70;;;7.79;83.71
58662;BME280;44432;49.786;22.760;2022-10-16T01:28:57;99816.81;;;7.75;83.64
58662;BME280;44432;49.786;22.760;2022-10-16T01:31:33;99821.96;;;7.73;83.70
58662;BME280;44432;49.786;22.760;2022-10-16T01:34:10;99817.87;;;7.72;83.74
58662;BME280;44432;49.786;22.760;2022-10-16T01:36:47;99821.73;;;7.70;83.76
58662;BME280;44432;49.786;22.760;2022-10-16T01:39:22;99822.65;;;7.67;83.50
58662;BME280;44432;49.786;22.760;2022-10-16T01:41:57;99822.81;;;7.61;83.28
58662;BME280;44432;49.786;22.760;2022-10-16T01:44:33;99819.48;;;7.52;83.15
58662;BME280;44432;49.786;22.760;2022-10-16T01:47:06;99826.38;;;7.49;82.88
58662;BME280;44432;49.786;22.760;2022-10-16T01:49:39;99825.42;;;7.42;82.64
58662;BME280;44432;49.786;22.760;2022-10-16T01:52:15;99821.70;;;7.36;82.73
58662;BME280;44432;49.786;22.760;2022-10-16T01:54:49;99826.80;;;7.32;82.91
58662;BME280;44432;49.786;22.760;2022-10-16T01:57:25;99833.11;;;7.26;82.92
58662;BME280;44432;49.786;22.760;2022-10-16T02:00:01;99836.88;;;7.21;83.07
58662;BME280;44432;49.786;22.760;2022-10-16T02:02:32;99835.15;;;7.14;82.88
58662;BME280;44432;49.786;22.760;2022-10-16T02:05:08;99839.14;;;7.09;83.08
58662;BME280;44432;49.786;22.760;2022-10-16T02:07:41;99841.13;;;7.05;83.15
58662;BME280;44432;49.786;22.760;2022-10-16T02:10:12;99845.42;;;7.01;83.28
58662;BME280;44432;49.786;22.760;2022-10-16T02:12:47;99847.84;;;6.99;83.23
58662;BME280;44432;49.786;22.760;2022-10-16T02:15:20;99850.71;;;6.96;83.15
58662;BME280;44432;49.786;22.760;2022-10-16T02:17:50;99854.02;;;6.94;83.43
58662;BME280;44432;49.786;22.760;2022-10-16T02:20:24;99855.12;;;6.90;83.41
58662;BME280;44432;49.786;22.760;2022-10-16T02:22:57;99851.34;;;6.86;83.22
58662;BME280;44432;49.786;22.760;2022-10-16T02:25:31;99848.23;;;6.82;83.09
58662;BME280;44432;49.786;22.760;2022-10-16T02:28:06;99847.35;;;6.78;83.18
58662;BME280;44432;49.786;22.760;2022-10-16T02:30:42;99844.85;;;6.74;83.38
58662;BME280;44432;49.786;22.760;2022-10-16T02:33:16;99835.87;;;6.69;83.14
58662;BME280;44432;49.786;22.760;2022-10-16T02:35:49;99842.04;;;6.68;83.32
58662;BME280;44432;49.786;22.760;2022-10-16T02:38:19;99845.38;;;6.65;83.49
58662;BME280;44432;49.786;22.760;2022-10-16T02:40:50;99841.38;;;6.59;83.41
58662;BME280;44432;49.786;22.760;2022-10-16T02:43:21;99841.98;;;6.54;83.47
58662;BME280;44432;49.786;22.760;2022-10-16T02:45:52;99847.14;;;6.54;83.91
58662;BME280;44432;49.786;22.760;2022-10-16T02:48:23;99848.08;;;6.55;83.94
58662;BME280;44432;49.786;22.760;2022-10-16T02:50:53;99852.36;;;6.57;83.92
58662;BME280;44432;49.786;22.760;2022-10-16T02:53:24;99858.05;;;6.60;83.87
58662;BME280;44432;49.786;22.760;2022-10-16T02:55:54;99858.81;;;6.64;83.97
58662;BME280;44432;49.786;22.760;2022-10-16T02:58:25;99846.71;;;6.65;83.97
58662;BME280;44432;49.786;22.760;2022-10-16T03:00:56;99844.95;;;6.69;83.96
58662;BME280;44432;49.786;22.760;2022-10-16T03:03:26;99842.44;;;6.71;83.82
58662;BME280;44432;49.786;22.760;2022-10-16T03:05:56;99844.29;;;6.70;83.92
58662;BME280;44432;49.786;22.760;2022-10-16T03:08:27;99846.97;;;6.66;83.44
58662;BME280;44432;49.786;22.760;2022-10-16T03:10:58;99851.23;;;6.63;83.76
58662;BME280;44432;49.786;22.760;2022-10-16T03:13:29;99852.13;;;6.64;84.13
58662;BME280;44432;49.786;22.760;2022-10-16T03:15:59;99854.70;;;6.68;84.38
58662;BME280;44432;49.786;22.760;2022-10-16T03:18:30;99850.60;;;6.73;84.37
58662;BME280;44432;49.786;22.760;2022-10-16T03:21:00;99849.00;;;6.78;84.79
58662;BME280;44432;49.786;22.760;2022-10-16T03:23:31;99850.27;;;6.83;84.49
58662;BME280;44432;49.786;22.760;2022-10-16T03:26:01;99851.00;;;6.87;84.62
58662;BME280;44432;49.786;22.760;2022-10-16T03:28:32;99851.94;;;6.93;84.61
58662;BME280;44432;49.786;22.760;2022-10-16T03:31:02;99852.27;;;6.98;84.23
58662;BME280;44432;49.786;22.760;2022-10-16T03:33:33;99845.76;;;7.02;84.41
58662;BME280;44432;49.786;22.760;2022-10-16T03:36:04;99848.18;;;7.02;84.02
58662;BME280;44432;49.786;22.760;2022-10-16T03:38:34;99842.98;;;7.03;84.10
58662;BME280;44432;49.786;22.760;2022-10-16T03:41:05;99846.23;;;7.03;84.29
58662;BME280;44432;49.786;22.760;2022-10-16T03:43:36;99848.85;;;7.03;84.32
58662;BME280;44432;49.786;22.760;2022-10-16T03:46:07;99852.86;;;7.04;84.22
58662;BME280;44432;49.786;22.760;2022-10-16T03:48:37;99851.39;;;7.03;84.15
58662;BME280;44432;49.786;22.760;2022-10-16T03:51:09;99855.00;;;7.02;84.28
58662;BME280;44432;49.786;22.760;2022-10-16T03:53:39;99860.14;;;7.00;83.99
58662;BME280;44432;49.786;22.760;2022-10-16T03:56:10;99864.98;;;6.97;84.32
58662;BME280;44432;49.786;22.760;2022-10-16T03:58:40;99863.31;;;6.92;84.15
58662;BME280;44432;49.786;22.760;2022-10-16T04:01:11;99862.65;;;6.92;84.16
58662;BME280;44432;49.786;22.760;2022-10-16T04:03:41;99862.12;;;6.88;84.07
58662;BME280;44432;49.786;22.760;2022-10-16T04:06:12;99863.98;;;6.84;83.68
58662;BME280;44432;49.786;22.760;2022-10-16T04:08:44;99864.60;;;6.79;83.91
58662;BME280;44432;49.786;22.760;2022-10-16T04:11:15;99869.18;;;6.76;83.82
58662;BME280;44432;49.786;22.760;2022-10-16T04:13:46;99874.30;;;6.71;83.92
58662;BME280;44432;49.786;22.760;2022-10-16T04:16:16;99867.83;;;6.66;83.79
58662;BME280;44432;49.786;22.760;2022-10-16T04:18:46;99870.78;;;6.62;84.15
58662;BME280;44432;49.786;22.760;2022-10-16T04:21:17;99872.27;;;6.56;84.08
58662;BME280;44432;49.786;22.760;2022-10-16T04:23:48;99874.56;;;6.49;83.80
58662;BME280;44432;49.786;22.760;2022-10-16T04:26:18;99874.85;;;6.45;83.87
58662;BME280;44432;49.786;22.760;2022-10-16T04:28:49;99873.42;;;6.41;84.43
58662;BME280;44432;49.786;22.760;2022-10-16T04:31:19;99876.94;;;6.41;84.28
58662;BME280;44432;49.786;22.760;2022-10-16T04:33:50;99874.48;;;6.39;84.42
58662;BME280;44432;49.786;22.760;2022-10-16T04:36:20;99877.66;;;6.39;84.53
58662;BME280;44432;49.786;22.760;2022-10-16T04:38:51;99879.73;;;6.35;84.20
58662;BME280;44432;49.786;22.760;2022-10-16T04:41:22;99876.96;;;6.36;84.54
58662;BME280;44432;49.786;22.760;2022-10-16T04:43:52;99876.48;;;6.31;84.45
58662;BME280;44432;49.786;22.760;2022-10-16T04:46:23;99883.80;;;6.31;84.54
58662;BME280;44432;49.786;22.760;2022-10-16T04:48:53;99875.70;;;6.30;84.41
58662;BME280;44432;49.786;22.760;2022-10-16T04:51:24;99886.39;;;6.30;84.89
58662;BME280;44432;49.786;22.760;2022-10-16T04:53:56;99884.04;;;6.29;84.56
58662;BME280;44432;49.786;22.760;2022-10-16T04:56:26;99887.41;;;6.29;84.71
58662;BME280;44432;49.786;22.760;2022-10-16T04:58:56;99892.16;;;6.28;84.38
58662;BME280;44432;49.786;22.760;2022-10-16T05:01:27;99892.00;;;6.27;84.74
58662;BME280;44432;49.786;22.760;2022-10-16T05:03:57;99895.61;;;6.26;84.59
58662;BME280;44432;49.786;22.760;2022-10-16T05:06:28;99895.94;;;6.26;84.62
58662;BME280;44432;49.786;22.760;2022-10-16T05:08:58;99893.21;;;6.27;85.02
58662;BME280;44432;49.786;22.760;2022-10-16T05:11:29;99892.50;;;6.27;84.79
58662;BME280;44432;49.786;22.760;2022-10-16T05:13:59;99895.70;;;6.30;84.81
58662;BME280;44432;49.786;22.760;2022-10-16T05:16:30;99901.35;;;6.32;84.73
58662;BME280;44432;49.786;22.760;2022-10-16T05:19:01;99902.46;;;6.34;84.68
58662;BME280;44432;49.786;22.760;2022-10-16T05:21:31;99901.30;;;6.37;84.97
58662;BME280;44432;49.786;22.760;2022-10-16T05:24:02;99902.02;;;6.40;84.61
58662;BME280;44432;49.786;22.760;2022-10-16T05:26:33;99907.02;;;6.44;85.13
58662;BME280;44432;49.786;22.760;2022-10-16T05:29:03;99908.80;;;6.48;84.79
58662;BME280;44432;49.786;22.760;2022-10-16T05:31:34;99912.26;;;6.53;84.81
58662;BME280;44432;49.786;22.760;2022-10-16T05:34:04;99917.41;;;6.59;85.26
58662;BME280;44432;49.786;22.760;2022-10-16T05:36:35;99920.96;;;6.65;85.26
58662;BME280;44432;49.786;22.760;2022-10-16T05:39:06;99923.19;;;6.71;85.05
58662;BME280;44432;49.786;22.760;2022-10-16T05:41:36;99924.23;;;6.79;85.23
58662;BME280;44432;49.786;22.760;2022-10-16T05:44:07;99926.19;;;6.88;85.44
58662;BME280;44432;49.786;22.760;2022-10-16T05:46:37;99928.85;;;7.00;85.34
58662;BME280;44432;49.786;22.760;2022-10-16T05:49:08;99927.75;;;7.13;85.37
58662;BME280;44432;49.786;22.760;2022-10-16T05:51:38;99928.39;;;7.26;85.21
58662;BME280;44432;49.786;22.760;2022-10-16T05:54:09;99930.71;;;7.40;85.32
58662;BME280;44432;49.786;22.760;2022-10-16T05:56:39;99935.10;;;7.54;85.30
58662;BME280;44432;49.786;22.760;2022-10-16T05:59:10;99935.18;;;7.68;85.53
58662;BME280;44432;49.786;22.760;2022-10-16T06:01:40;99940.20;;;7.84;85.63
58662;BME280;44432;49.786;22.760;2022-10-16T06:04:11;99943.10;;;8.01;85.76
58662;BME280;44432;49.786;22.760;2022-10-16T06:06:41;99944.14;;;8.19;85.57
58662;BME280;44432;49.786;22.760;2022-10-16T06:09:12;99939.90;;;8.40;86.03
58662;BME280;44432;49.786;22.760;2022-10-16T06:11:42;99939.77;;;8.61;86.32
58662;BME280;44432;49.786;22.760;2022-10-16T06:14:13;99938.02;;;8.86;86.16
58662;BME280;44432;49.786;22.760;2022-10-16T06:16:43;99942.83;;;9.11;86.08
58662;BME280;44432;49.786;22.760;2022-10-16T06:19:14;99940.84;;;9.36;85.86
58662;BME280;44432;49.786;22.760;2022-10-16T06:21:45;99946.80;;;9.60;85.52
58662;BME280;44432;49.786;22.760;2022-10-16T06:24:16;99952.73;;;9.85;85.27
58662;BME280;44432;49.786;22.760;2022-10-16T06:26:46;99955.58;;;10.08;85.03
58662;BME280;44432;49.786;22.760;2022-10-16T06:29:17;99956.31;;;10.30;84.72
58662;BME280;44432;49.786;22.760;2022-10-16T06:31:47;99960.20;;;10.52;84.17
58662;BME280;44432;49.786;22.760;2022-10-16T06:34:18;99962.94;;;10.74;84.13
58662;BME280;44432;49.786;22.760;2022-10-16T06:36:48;99966.98;;;10.96;83.58
58662;BME280;44432;49.786;22.760;2022-10-16T06:39:19;99967.48;;;11.18;83.31
58662;BME280;44432;49.786;22.760;2022-10-16T06:41:49;99967.33;;;11.41;82.96
58662;BME280;44432;49.786;22.760;2022-10-16T06:44:20;99972.35;;;11.64;82.49
58662;BME280;44432;49.786;22.760;2022-10-16T06:46:50;99972.30;;;11.86;82.22
58662;BME280;44432;49.786;22.760;2022-10-16T06:49:21;99967.63;;;12.07;81.82
58662;BME280;44432;49.786;22.760;2022-10-16T06:51:52;99973.30;;;12.31;81.42
58662;BME280;44432;49.786;22.760;2022-10-16T06:54:22;99967.35;;;12.54;81.14
58662;BME280;44432;49.786;22.760;2022-10-16T06:56:54;99969.91;;;12.76;80.66
58662;BME280;44432;49.786;22.760;2022-10-16T06:59:25;99971.18;;;12.97;80.22
58662;BME280;44432;49.786;22.760;2022-10-16T07:01:55;99973.43;;;13.17;79.81
58662;BME280;44432;49.786;22.760;2022-10-16T07:04:26;99972.52;;;13.36;79.37
58662;BME280;44432;49.786;22.760;2022-10-16T07:06:56;99975.52;;;13.56;78.94
58662;BME280;44432;49.786;22.760;2022-10-16T07:09:27;99975.30;;;13.74;78.59
58662;BME280;44432;49.786;22.760;2022-10-16T07:11:57;99975.30;;;13.94;78.09
58662;BME280;44432;49.786;22.760;2022-10-16T07:14:28;99976.47;;;14.15;77.61
58662;BME280;44432;49.786;22.760;2022-10-16T07:16:59;99971.09;;;14.30;77.31
58662;BME280;44432;49.786;22.760;2022-10-16T07:19:29;99979.23;;;14.55;76.68
58662;BME280;44432;49.786;22.760;2022-10-16T07:22:00;99974.95;;;14.74;76.07
58662;BME280;44432;49.786;22.760;2022-10-16T07:24:30;99972.14;;;14.93;75.34
58662;BME280;44432;49.786;22.760;2022-10-16T07:27:01;99970.94;;;15.14;74.62
58662;BME280;44432;49.786;22.760;2022-10-16T07:29:33;99976.92;;;15.37;73.57
58662;BME280;44432;49.786;22.760;2022-10-16T07:32:04;99975.78;;;15.60;72.83
58662;BME280;44432;49.786;22.760;2022-10-16T07:34:34;99981.14;;;15.81;72.18
58662;BME280;44432;49.786;22.760;2022-10-16T07:37:05;99979.27;;;16.03;71.46
58662;BME280;44432;49.786;22.760;2022-10-16T07:39:35;99986.30;;;16.25;69.94
58662;BME280;44432;49.786;22.760;2022-10-16T07:42:06;99983.98;;;16.47;68.90
58662;BME280;44432;49.786;22.760;2022-10-16T07:44:36;99983.19;;;16.67;67.65
58662;BME280;44432;49.786;22.760;2022-10-16T07:47:07;99987.74;;;16.85;66.63
58662;BME280;44432;49.786;22.760;2022-10-16T07:49:38;99987.19;;;17.01;65.87
58662;BME280;44432;49.786;22.760;2022-10-16T07:52:09;99987.60;;;17.11;65.40
58662;BME280;44432;49.786;22.760;2022-10-16T07:54:39;99991.16;;;17.18;64.70
58662;BME280;44432;49.786;22.760;2022-10-16T07:57:09;99997.45;;;17.24;63.97
58662;BME280;44432;49.786;22.760;2022-10-16T07:59:40;99998.05;;;17.27;63.45
58662;BME280;44432;49.786;22.760;2022-10-16T08:02:11;99998.09;;;17.29;63.05
58662;BME280;44432;49.786;22.760;2022-10-16T08:04:41;99998.73;;;17.31;62.65
58662;BME280;44432;49.786;22.760;2022-10-16T08:07:12;100000.18;;;17.35;62.43
58662;BME280;44432;49.786;22.760;2022-10-16T08:09:42;100002.49;;;17.36;61.78
58662;BME280;44432;49.786;22.760;2022-10-16T08:12:13;100005.31;;;17.39;61.58
58662;BME280;44432;49.786;22.760;2022-10-16T08:14:43;100005.85;;;17.42;61.25
58662;BME280;44432;49.786;22.760;2022-10-16T08:17:16;100005.92;;;17.46;60.68
58662;BME280;44432;49.786;22.760;2022-10-16T08:19:47;100004.26;;;17.51;60.38
58662;BME280;44432;49.786;22.760;2022-10-16T08:22:18;100008.70;;;17.60;59.91
58662;BME280;44432;49.786;22.760;2022-10-16T08:24:48;100005.94;;;17.70;59.34
58662;BME280;44432;49.786;22.760;2022-10-16T08:27:19;100003.85;;;17.82;59.25
58662;BME280;44432;49.786;22.760;2022-10-16T08:29:50;100003.63;;;17.99;58.50
58662;BME280;44432;49.786;22.760;2022-10-16T08:32:21;100005.69;;;18.14;57.86
58662;BME280;44432;49.786;22.760;2022-10-16T08:34:51;100006.09;;;18.26;57.01
58662;BME280;44432;49.786;22.760;2022-10-16T08:37:22;100006.85;;;18.39;56.67
58662;BME280;44432;49.786;22.760;2022-10-16T08:39:53;100012.89;;;18.50;56.43
58662;BME280;44432;49.786;22.760;2022-10-16T08:42:33;100007.63;;;18.59;55.25
58662;BME280;44432;49.786;22.760;2022-10-16T08:45:34;100003.14;;;18.66;54.89
58662;BME280;44432;49.786;22.760;2022-10-16T08:48:17;100003.27;;;18.74;54.47
58662;BME280;44432;49.786;22.760;2022-10-16T08:50:49;100000.31;;;18.81;54.00
58662;BME280;44432;49.786;22.760;2022-10-16T08:53:25;100001.66;;;18.90;54.25
58662;BME280;44432;49.786;22.760;2022-10-16T08:55:58;99999.98;;;19.02;53.77
58662;BME280;44432;49.786;22.760;2022-10-16T08:58:30;100000.70;;;19.08;52.68
58662;BME280;44432;49.786;22.760;2022-10-16T09:01:03;99999.33;;;19.11;52.54
58662;BME280;44432;49.786;22.760;2022-10-16T09:03:46;99999.87;;;19.16;52.57
58662;BME280;44432;49.786;22.760;2022-10-16T09:06:33;100000.73;;;19.26;52.35
58662;BME280;44432;49.786;22.760;2022-10-16T09:09:25;99995.34;;;19.33;52.26
58662;BME280;44432;49.786;22.760;2022-10-16T09:12:02;100004.50;;;19.52;52.23
58662;BME280;44432;49.786;22.760;2022-10-16T09:14:43;100003.48;;;19.68;52.19
58662;BME280;44432;49.786;22.760;2022-10-16T09:17:32;100008.04;;;19.84;51.92
58662;BME280;44432;49.786;22.760;2022-10-16T09:20:19;100008.30;;;20.04;51.80
58662;BME280;44432;49.786;22.760;2022-10-16T09:22:56;100007.54;;;20.22;51.00
58662;BME280;44432;49.786;22.760;2022-10-16T09:25:30;100005.74;;;20.34;50.35
58662;BME280;44432;49.786;22.760;2022-10-16T09:28:01;100006.64;;;20.47;49.90
58662;BME280;44432;49.786;22.760;2022-10-16T09:30:32;100008.96;;;20.58;49.46
58662;BME280;44432;49.786;22.760;2022-10-16T09:33:03;100004.66;;;20.67;49.07
58662;BME280;44432;49.786;22.760;2022-10-16T09:35:38;100004.43;;;20.74;48.33
58662;BME280;44432;49.786;22.760;2022-10-16T09:38:09;100006.96;;;20.78;47.97
58662;BME280;44432;49.786;22.760;2022-10-16T09:40:51;100007.13;;;20.82;47.58
58662;BME280;44432;49.786;22.760;2022-10-16T09:43:24;100006.52;;;20.90;47.57
58662;BME280;44432;49.786;22.760;2022-10-16T09:45:59;100007.84;;;20.98;47.30
58662;BME280;44432;49.786;22.760;2022-10-16T09:48:33;100002.98;;;21.08;46.87
58662;BME280;44432;49.786;22.760;2022-10-16T09:51:16;100006.91;;;21.13;46.56
58662;BME280;44432;49.786;22.760;2022-10-16T09:53:49;100007.67;;;21.17;46.28
58662;BME280;44432;49.786;22.760;2022-10-16T09:56:25;100009.19;;;21.19;45.89
58662;BME280;44432;49.786;22.760;2022-10-16T09:58:58;100007.20;;;21.17;45.41
58662;BME280;44432;49.786;22.760;2022-10-16T10:01:36;100012.45;;;21.12;45.24
58662;BME280;44432;49.786;22.760;2022-10-16T10:04:07;100016.21;;;21.12;45.30
58662;BME280;44432;49.786;22.760;2022-10-16T10:06:42;100022.19;;;21.17;45.18
58662;BME280;44432;49.786;22.760;2022-10-16T10:09:20;100021.77;;;21.20;44.71
58662;BME280;44432;49.786;22.760;2022-10-16T10:11:54;100018.35;;;21.21;44.49
58662;BME280;44432;49.786;22.760;2022-10-16T10:14:33;100017.27;;;21.22;44.59
58662;BME280;44432;49.786;22.760;2022-10-16T10:17:12;100020.99;;;21.24;44.48
58662;BME280;44432;49.786;22.760;2022-10-16T10:19:47;100018.48;;;21.24;44.00
58662;BME280;44432;49.786;22.760;2022-10-16T10:22:27;100015.51;;;21.21;44.12
58662;BME280;44432;49.786;22.760;2022-10-16T10:25:14;100016.07;;;21.30;44.63
58662;BME280;44432;49.786;22.760;2022-10-16T10:30:44;100020.91;;;21.54;44.44
58662;BME280;44432;49.786;22.760;2022-10-16T10:33:27;100022.86;;;21.64;44.04
58662;BME280;44432;49.786;22.760;2022-10-16T10:36:04;100024.64;;;21.70;43.92
58662;BME280;44432;49.786;22.760;2022-10-16T10:38:45;100021.80;;;21.75;43.97
58662;BME280;44432;49.786;22.760;2022-10-16T10:41:32;100021.59;;;21.82;43.71
58662;BME280;44432;49.786;22.760;2022-10-16T10:44:14;100018.02;;;21.84;43.41
58662;BME280;44432;49.786;22.760;2022-10-16T10:46:53;100022.48;;;21.79;41.87
58662;BME280;44432;49.786;22.760;2022-10-16T10:49:42;100024.20;;;21.65;42.45
58662;BME280;44432;49.786;22.760;2022-10-16T10:52:36;100021.19;;;21.59;42.71
58662;BME280;44432;49.786;22.760;2022-10-16T10:55:18;100016.67;;;21.56;42.65
58662;BME280;44432;49.786;22.760;2022-10-16T10:58:14;100015.64;;;21.57;42.71
58662;BME280;44432;49.786;22.760;2022-10-16T11:00:53;100018.11;;;21.51;42.31
58662;BME280;44432;49.786;22.760;2022-10-16T11:03:40;100009.23;;;21.48;42.27
58662;BME280;44432;49.786;22.760;2022-10-16T11:06:17;100010.05;;;21.47;42.43
58662;BME280;44432;49.786;22.760;2022-10-16T11:08:50;100007.84;;;21.50;42.62
58662;BME280;44432;49.786;22.760;2022-10-16T11:11:28;100004.29;;;21.45;42.44
58662;BME280;44432;49.786;22.760;2022-10-16T11:14:04;100007.98;;;21.37;42.03
58662;BME280;44432;49.786;22.760;2022-10-16T11:16:38;100012.79;;;21.27;42.37
58662;BME280;44432;49.786;22.760;2022-10-16T11:19:14;100008.70;;;21.19;42.55
58662;BME280;44432;49.786;22.760;2022-10-16T11:21:56;100010.56;;;21.12;42.46
58662;BME280;44432;49.786;22.760;2022-10-16T11:24:39;100012.84;;;21.05;41.89
58662;BME280;44432;49.786;22.760;2022-10-16T11:27:16;100005.98;;;20.91;41.99
58662;BME280;44432;49.786;22.760;2022-10-16T11:29:51;100009.80;;;20.82;42.40
58662;BME280;44432;49.786;22.760;2022-10-16T11:32:27;100008.53;;;20.79;42.53
58662;BME280;44432;49.786;22.760;2022-10-16T11:35:04;100007.29;;;20.75;42.31
58662;BME280;44432;49.786;22.760;2022-10-16T11:37:42;100010.81;;;20.73;42.67
58662;BME280;44432;49.786;22.760;2022-10-16T11:40:22;100012.84;;;20.72;43.05
58662;BME280;44432;49.786;22.760;2022-10-16T11:42:57;100013.45;;;20.74;42.98
58662;BME280;44432;49.786;22.760;2022-10-16T11:45:33;100021.23;;;20.72;42.65
58662;BME280;44432;49.786;22.760;2022-10-16T11:48:12;100019.38;;;20.70;42.62
58662;BME280;44432;49.786;22.760;2022-10-16T11:50:50;100021.90;;;20.69;42.74
58662;BME280;44432;49.786;22.760;2022-10-16T11:53:37;100025.23;;;20.69;42.54
58662;BME280;44432;49.786;22.760;2022-10-16T11:56:09;100023.58;;;20.69;42.73
58662;BME280;44432;49.786;22.760;2022-10-16T11:58:48;100024.59;;;20.71;42.34
58662;BME280;44432;49.786;22.760;2022-10-16T12:01:24;100027.22;;;20.70;42.22
58662;BME280;44432;49.786;22.760;2022-10-16T12:04:11;100028.98;;;20.70;42.17
58662;BME280;44432;49.786;22.760;2022-10-16T12:06:48;100030.90;;;20.66;42.10
58662;BME280;44432;49.786;22.760;2022-10-16T12:09:24;100027.50;;;20.62;42.25
58662;BME280;44432;49.786;22.760;2022-10-16T12:11:56;100031.75;;;20.56;42.22
58662;BME280;44432;49.786;22.760;2022-10-16T12:14:39;100027.48;;;20.52;42.28
58662;BME280;44432;49.786;22.760;2022-10-16T12:17:27;100025.92;;;20.50;42.45
58662;BME280;44432;49.786;22.760;2022-10-16T12:20:22;100026.46;;;20.51;42.57
58662;BME280;44432;49.786;22.760;2022-10-16T12:22:54;100026.42;;;20.53;42.58
58662;BME280;44432;49.786;22.760;2022-10-16T12:25:29;100025.95;;;20.55;42.49
58662;BME280;44432;49.786;22.760;2022-10-16T12:28:02;100024.30;;;20.55;42.43
58662;BME280;44432;49.786;22.760;2022-10-16T12:30:35;100020.00;;;20.56;42.33
58662;BME280;44432;49.786;22.760;2022-10-16T12:33:17;100021.25;;;20.59;42.30
58662;BME280;44432;49.786;22.760;2022-10-16T12:35:50;100020.04;;;20.62;42.21
58662;BME280;44432;49.786;22.760;2022-10-16T12:38:24;100020.16;;;20.64;42.19
58662;BME280;44432;49.786;22.760;2022-10-16T12:41:01;100025.05;;;20.67;42.21
58662;BME280;44432;49.786;22.760;2022-10-16T12:43:43;100024.14;;;20.66;42.19
58662;BME280;44432;49.786;22.760;2022-10-16T12:46:33;100021.73;;;20.67;42.10
58662;BME280;44432;49.786;22.760;2022-10-16T12:49:22;100011.95;;;20.64;42.25
58662;BME280;44432;49.786;22.760;2022-10-16T12:51:59;100014.12;;;20.69;42.24
58662;BME280;44432;49.786;22.760;2022-10-16T12:54:31;100012.48;;;20.71;42.13
58662;BME280;44432;49.786;22.760;2022-10-16T12:57:13;100010.00;;;20.71;41.99
58662;BME280;44432;49.786;22.760;2022-10-16T12:59:53;100002.48;;;20.71;41.89
58662;BME280;44432;49.786;22.760;2022-10-16T13:02:49;100002.11;;;20.72;42.06
58662;BME280;44432;49.786;22.760;2022-10-16T13:05:35;100001.59;;;20.74;42.29
58662;BME280;44432;49.786;22.760;2022-10-16T13:08:21;100006.11;;;20.77;42.44
58662;BME280;44432;49.786;22.760;2022-10-16T13:11:03;100005.30;;;20.78;42.35
58662;BME280;44432;49.786;22.760;2022-10-16T13:13:44;100014.80;;;20.78;42.24
58662;BME280;44432;49.786;22.760;2022-10-16T13:16:26;100019.04;;;20.77;42.12
58662;BME280;44432;49.786;22.760;2022-10-16T13:19:08;100019.52;;;20.75;42.07
58662;BME280;44432;49.786;22.760;2022-10-16T13:21:48;100018.86;;;20.72;42.16
58662;BME280;44432;49.786;22.760;2022-10-16T13:24:30;100019.55;;;20.71;42.35
58662;BME280;44432;49.786;22.760;2022-10-16T13:27:09;100021.64;;;20.70;42.35
58662;BME280;44432;49.786;22.760;2022-10-16T13:29:45;100023.83;;;20.69;42.50